Terminal Aerodrome Forecast
Issued by NWS

Home | Current Version | Previous Version | Text Only | Print | Product List | Glossary On
Versions: 1 2 3 4 5 6 7 8 9 10 11 12 13 14 15 16 17 18
000
FTUS41 KPBZ 260528
TAFFKL
TAF
KFKL 260528Z 2606/2706 22008KT P6SM BKN060
     FM261000 21006KT P6SM VCSH BKN030
     FM261700 19012KT P6SM VCTS BKN035CB
     FM270200 17010KT P6SM VCSH BKN080
      AMD LTD TO CLD VIS AND WIND=

USA.gov is the U.S. government's official web portal to all federal, state and local government web resources and services.